createdAt,value
2018-08-06T00:00:27.519Z,51.20
2018-08-06T00:02:56.101Z,51.60
2018-08-06T00:05:24.710Z,51.20
2018-08-06T00:07:53.317Z,51.20
2018-08-06T00:10:23.831Z,52.10
2018-08-06T00:12:52.581Z,51.40
2018-08-06T00:15:21.266Z,51.40
2018-08-06T00:17:49.819Z,51.90
2018-08-06T00:20:18.472Z,51.70
2018-08-06T00:22:46.994Z,51.90
2018-08-06T00:25:16.547Z,51.80
2018-08-06T00:27:45.643Z,52.10
2018-08-06T00:30:17.208Z,52.10
2018-08-06T00:32:46.662Z,52.00
2018-08-06T00:35:15.754Z,51.90
2018-08-06T00:37:44.470Z,51.90
2018-08-06T00:40:14.796Z,52.20
2018-08-06T00:42:44.203Z,52.30
2018-08-06T00:45:14.753Z,52.20
2018-08-06T00:47:43.843Z,52.40
2018-08-06T00:50:12.824Z,52.50
2018-08-06T00:52:41.352Z,52.80
2018-08-06T00:55:13.412Z,52.80
2018-08-06T00:57:42.349Z,52.90
2018-08-06T01:00:13.935Z,53.10
2018-08-06T01:02:42.791Z,52.90
2018-08-06T01:05:12.675Z,53.00
2018-08-06T01:07:42.090Z,53.10
2018-08-06T01:10:14.958Z,53.30
2018-08-06T01:12:43.534Z,53.40
2018-08-06T01:15:13.984Z,53.70
2018-08-06T01:17:42.586Z,53.50
2018-08-06T01:20:12.683Z,54.20
2018-08-06T01:22:42.188Z,53.50
2018-08-06T01:27:39.196Z,54.60
2018-08-06T01:30:09.641Z,53.80
2018-08-06T01:32:38.671Z,53.70
2018-08-06T01:35:08.880Z,53.70
2018-08-06T01:37:37.539Z,53.80
2018-08-06T01:40:08.723Z,54.20
2018-08-06T01:42:37.316Z,54.10
2018-08-06T01:45:06.121Z,53.90
2018-08-06T01:47:34.757Z,54.20
2018-08-06T01:50:03.544Z,53.70
2018-08-06T01:52:32.087Z,54.40
2018-08-06T01:55:00.706Z,55.20
2018-08-06T01:57:29.263Z,55.40
2018-08-06T01:59:57.894Z,55.50
2018-08-06T02:02:26.464Z,55.60
2018-08-06T02:04:54.975Z,55.70
2018-08-06T02:07:23.475Z,55.60
2018-08-06T02:09:52.025Z,55.60
2018-08-06T02:12:20.555Z,55.60
2018-08-06T02:14:49.057Z,55.50
2018-08-06T02:17:17.583Z,55.40
2018-08-06T02:19:46.150Z,55.30
2018-08-06T02:22:14.679Z,55.20
2018-08-06T02:24:43.179Z,55.10
2018-08-06T02:27:11.705Z,55.20
2018-08-06T02:29:40.187Z,55.20
2018-08-06T02:34:36.898Z,55.10
2018-08-06T02:37:05.896Z,55.00
2018-08-06T02:39:34.551Z,55.00
2018-08-06T02:42:03.239Z,55.50
2018-08-06T02:44:31.826Z,55.10
2018-08-06T02:47:00.505Z,55.00
2018-08-06T02:49:29.036Z,55.00
2018-08-06T02:51:57.616Z,55.20
2018-08-06T02:54:26.160Z,55.10
2018-08-06T02:56:54.708Z,55.20
2018-08-06T02:59:23.202Z,55.10
2018-08-06T03:01:51.713Z,55.30
2018-08-06T03:04:20.248Z,55.50
2018-08-06T03:06:48.753Z,55.50
2018-08-06T03:09:17.336Z,55.40
2018-08-06T03:11:45.984Z,55.10
2018-08-06T03:14:14.540Z,55.00
2018-08-06T03:16:43.159Z,55.30
2018-08-06T03:19:11.665Z,55.50
2018-08-06T03:21:40.152Z,55.30
2018-08-06T03:24:08.704Z,55.40
2018-08-06T03:26:37.176Z,55.50
2018-08-06T03:29:05.752Z,55.80
2018-08-06T03:31:34.243Z,55.80
2018-08-06T03:34:02.773Z,55.60
2018-08-06T03:36:31.271Z,55.70
2018-08-06T03:38:59.885Z,55.60
2018-08-06T03:41:28.411Z,55.80
2018-08-06T03:43:57.015Z,55.90
2018-08-06T03:46:25.648Z,55.80
2018-08-06T03:48:54.170Z,55.90
2018-08-06T03:51:22.684Z,55.70
2018-08-06T03:53:51.231Z,55.90
2018-08-06T03:56:20.599Z,56.30
2018-08-06T03:58:50.347Z,56.00
2018-08-06T04:01:19.157Z,55.90
2018-08-06T04:03:47.948Z,56.00
2018-08-06T04:06:17.019Z,56.10
2018-08-06T04:08:45.715Z,56.20
2018-08-06T04:11:14.223Z,56.30
2018-08-06T04:13:43.819Z,56.90
2018-08-06T04:16:12.615Z,56.70
2018-08-06T04:18:41.152Z,56.90
2018-08-06T04:21:09.787Z,56.80
2018-08-06T04:23:38.260Z,57.10
2018-08-06T04:26:07.178Z,57.40
2018-08-06T04:28:35.811Z,57.10
2018-08-06T04:31:04.355Z,57.00
2018-08-06T04:33:33.119Z,57.00
2018-08-06T04:36:01.677Z,57.30
2018-08-06T04:38:30.306Z,57.20
2018-08-06T04:43:26.968Z,57.20
2018-08-06T04:45:55.523Z,57.10
2018-08-06T04:48:24.127Z,57.00
2018-08-06T04:50:53.151Z,57.00
2018-08-06T04:53:21.688Z,57.00
2018-08-06T04:55:50.252Z,57.10
2018-08-06T04:58:18.953Z,57.40
2018-08-06T05:00:47.467Z,57.70
2018-08-06T05:03:16.027Z,57.60
2018-08-06T05:05:44.559Z,57.50
2018-08-06T05:10:41.428Z,57.80
2018-08-06T05:13:10.143Z,57.90
2018-08-06T05:15:38.851Z,57.80
2018-08-06T05:18:07.405Z,57.60
2018-08-06T05:20:35.872Z,57.80
2018-08-06T05:23:04.411Z,57.90
2018-08-06T05:25:32.941Z,57.80
2018-08-06T05:28:01.573Z,57.80
2018-08-06T05:30:30.144Z,57.60
2018-08-06T05:32:58.803Z,57.10
2018-08-06T05:35:27.314Z,56.80
2018-08-06T05:37:55.826Z,56.70
2018-08-06T05:40:24.462Z,56.60
2018-08-06T05:42:52.967Z,56.40
2018-08-06T05:45:21.607Z,56.60
2018-08-06T05:47:50.159Z,56.50
2018-08-06T05:50:18.668Z,56.70
2018-08-06T05:52:47.207Z,56.70
2018-08-06T05:55:15.684Z,56.60
2018-08-06T05:57:44.239Z,56.50
2018-08-06T06:00:18.012Z,56.60
2018-08-06T06:02:47.247Z,56.60
2018-08-06T06:05:15.832Z,56.50
2018-08-06T06:07:44.360Z,56.70
2018-08-06T06:10:14.738Z,56.40
2018-08-06T06:12:43.315Z,56.30
2018-08-06T06:15:14.955Z,56.00
2018-08-06T06:17:44.273Z,56.00
2018-08-06T06:20:13.236Z,55.60
2018-08-06T06:22:41.743Z,55.60
2018-08-06T06:25:11.977Z,55.50
2018-08-06T06:27:40.778Z,55.20
2018-08-06T06:30:11.821Z,55.20
2018-08-06T06:32:40.359Z,54.80
2018-08-06T06:35:08.856Z,54.50
2018-08-06T06:37:37.681Z,54.40
2018-08-06T06:40:06.251Z,54.50
2018-08-06T06:42:34.777Z,54.70
2018-08-06T06:45:03.448Z,55.60
2018-08-06T06:47:31.943Z,54.30
2018-08-06T06:50:00.400Z,54.10
2018-08-06T06:54:57.434Z,53.90
2018-08-06T06:57:26.131Z,53.90
2018-08-06T06:59:54.711Z,53.80
2018-08-06T07:02:23.291Z,53.90
2018-08-06T07:04:52.084Z,54.00
2018-08-06T07:07:20.660Z,54.20
2018-08-06T07:09:49.268Z,54.40
2018-08-06T07:12:18.017Z,54.40
2018-08-06T07:14:46.827Z,54.60
2018-08-06T07:17:15.304Z,54.30
2018-08-06T07:19:43.863Z,54.10
2018-08-06T07:22:12.665Z,54.00
2018-08-06T07:24:41.307Z,53.70
2018-08-06T07:27:09.813Z,54.20
2018-08-06T07:29:38.439Z,54.10
2018-08-06T07:32:06.979Z,53.80
2018-08-06T07:34:35.507Z,53.90
2018-08-06T07:37:04.207Z,54.30
2018-08-06T07:39:32.785Z,54.30
2018-08-06T07:42:01.318Z,54.20
2018-08-06T07:44:29.982Z,53.90
2018-08-06T07:46:58.607Z,54.00
2018-08-06T07:49:27.166Z,54.00
2018-08-06T07:51:55.749Z,53.40
2018-08-06T07:56:52.514Z,53.60
2018-08-06T07:59:21.152Z,53.70
2018-08-06T08:01:49.907Z,53.60
2018-08-06T08:04:18.874Z,53.70
2018-08-06T08:06:47.487Z,53.40
2018-08-06T08:09:16.014Z,53.10
2018-08-06T08:11:44.606Z,52.80
2018-08-06T08:14:13.293Z,52.80
2018-08-06T08:16:41.911Z,52.90
2018-08-06T08:19:10.487Z,53.20
2018-08-06T08:21:39.043Z,53.20
2018-08-06T08:24:07.557Z,53.40
2018-08-06T08:26:36.083Z,53.40
2018-08-06T08:29:05.643Z,52.80
2018-08-06T08:31:34.195Z,52.50
2018-08-06T08:34:02.785Z,53.00
2018-08-06T08:36:31.379Z,52.80
2018-08-06T08:39:00.062Z,52.50
2018-08-06T08:41:28.624Z,52.30
2018-08-06T08:43:57.106Z,52.10
2018-08-06T08:46:25.765Z,52.30
2018-08-06T08:48:54.278Z,52.00
2018-08-06T08:51:22.836Z,52.10
2018-08-06T08:53:51.379Z,52.00
2018-08-06T08:56:20.102Z,52.00
2018-08-06T08:58:48.754Z,52.40
2018-08-06T09:01:17.419Z,52.60
2018-08-06T09:03:46.132Z,53.00
2018-08-06T09:06:14.740Z,52.90
2018-08-06T09:08:43.426Z,52.40
2018-08-06T09:11:12.052Z,52.20
2018-08-06T09:13:40.662Z,52.20
2018-08-06T09:16:09.239Z,52.50
2018-08-06T09:18:37.724Z,52.30
2018-08-06T09:21:06.362Z,52.20
2018-08-06T09:23:34.931Z,51.70
2018-08-06T09:26:03.487Z,51.50
2018-08-06T09:28:32.045Z,51.60
2018-08-06T09:31:00.656Z,51.80
2018-08-06T09:33:29.337Z,52.30
2018-08-06T09:35:57.952Z,51.70
2018-08-06T09:38:26.530Z,51.60
2018-08-06T09:40:55.052Z,52.00
2018-08-06T09:43:23.620Z,51.60
2018-08-06T09:45:52.253Z,51.50
2018-08-06T09:48:20.808Z,51.60
2018-08-06T09:50:49.567Z,51.70
2018-08-06T09:53:18.242Z,51.40
2018-08-06T09:55:46.807Z,52.40
2018-08-06T09:58:15.544Z,51.90
2018-08-06T10:00:49.490Z,51.80
2018-08-06T10:03:18.127Z,51.40
2018-08-06T10:05:46.803Z,51.80
2018-08-06T10:08:15.247Z,51.60
2018-08-06T10:10:43.763Z,51.30
2018-08-06T10:13:12.351Z,50.80
2018-08-06T10:15:41.019Z,50.00
2018-08-06T10:18:09.614Z,50.60
2018-08-06T10:20:38.177Z,50.10
2018-08-06T10:23:06.887Z,50.00
2018-08-06T10:28:03.689Z,49.90
2018-08-06T10:30:32.411Z,49.90
2018-08-06T10:33:00.922Z,51.10
2018-08-06T10:35:29.580Z,51.00
2018-08-06T10:37:58.135Z,49.50
2018-08-06T10:40:26.735Z,50.10
2018-08-06T10:42:55.227Z,49.20
2018-08-06T10:45:24.970Z,49.70
2018-08-06T10:47:54.047Z,49.90
2018-08-06T10:50:22.708Z,48.20
2018-08-06T10:52:51.429Z,47.60
2018-08-06T10:55:20.301Z,47.00
2018-08-06T10:57:49.006Z,47.20
2018-08-06T11:00:19.073Z,44.70
2018-08-06T11:02:48.151Z,44.60
2018-08-06T11:05:17.429Z,44.10
2018-08-06T11:07:46.025Z,44.00
2018-08-06T11:10:17.431Z,44.30
2018-08-06T11:12:46.012Z,43.50
2018-08-06T11:15:18.147Z,43.30
2018-08-06T11:17:46.937Z,42.00
2018-08-06T11:20:16.557Z,42.30
2018-08-06T11:22:45.207Z,41.60
2018-08-06T11:25:17.318Z,41.20
2018-08-06T11:27:46.427Z,40.80
2018-08-06T11:30:16.847Z,41.40
2018-08-06T11:35:14.831Z,40.80
2018-08-06T11:37:43.742Z,40.20
2018-08-06T11:40:13.523Z,39.80
2018-08-06T11:42:43.147Z,40.00
2018-08-06T11:45:14.212Z,39.70
2018-08-06T11:47:42.973Z,38.90
2018-08-06T11:50:11.857Z,38.40
2018-08-06T11:52:40.732Z,38.60
2018-08-06T11:55:10.042Z,39.10
2018-08-06T11:57:38.720Z,39.20
2018-08-06T12:00:12.184Z,38.90
2018-08-06T12:02:40.801Z,38.10
2018-08-06T12:05:09.460Z,37.70
2018-08-06T12:07:38.589Z,37.20
2018-08-06T12:10:12.913Z,37.70
2018-08-06T12:12:41.790Z,36.80
2018-08-06T12:15:11.052Z,36.80
2018-08-06T12:17:40.457Z,37.50
2018-08-06T12:20:12.910Z,36.80
2018-08-06T12:22:42.876Z,37.00
2018-08-06T12:25:12.726Z,37.70
2018-08-06T12:27:41.654Z,36.30
2018-08-06T12:30:13.420Z,36.30
2018-08-06T12:32:42.655Z,35.70
2018-08-06T12:35:11.238Z,36.40
2018-08-06T12:37:39.935Z,36.00
2018-08-06T12:40:11.790Z,35.80
2018-08-06T12:42:40.544Z,35.00
2018-08-06T12:45:10.487Z,34.30
2018-08-06T12:47:39.770Z,34.50
2018-08-06T12:50:09.862Z,35.10
2018-08-06T12:52:39.406Z,34.70
2018-08-06T12:55:09.719Z,34.50
2018-08-06T12:57:38.902Z,33.70
2018-08-06T13:00:13.755Z,33.80
2018-08-06T13:02:42.426Z,33.60
2018-08-06T13:05:11.466Z,33.90
2018-08-06T13:07:40.208Z,34.50
2018-08-06T13:10:08.984Z,34.20
2018-08-06T13:12:38.707Z,34.10
2018-08-06T13:15:09.144Z,33.70
2018-08-06T13:17:37.768Z,33.60
2018-08-06T13:20:07.028Z,33.60
2018-08-06T13:22:35.967Z,33.10
2018-08-06T13:25:05.903Z,33.00
2018-08-06T13:27:34.490Z,32.80
2018-08-06T13:30:03.107Z,33.00
2018-08-06T13:32:31.771Z,33.70
2018-08-06T13:35:00.412Z,32.90
2018-08-06T13:37:29.146Z,32.90
2018-08-06T13:39:57.658Z,33.20
2018-08-06T13:42:26.143Z,32.90
2018-08-06T13:44:54.869Z,32.50
2018-08-06T13:47:23.458Z,32.80
2018-08-06T13:49:52.020Z,32.10
2018-08-06T13:52:20.530Z,32.10
2018-08-06T13:54:49.109Z,31.60
2018-08-06T13:57:17.624Z,31.20
2018-08-06T13:59:46.242Z,31.40
2018-08-06T14:02:14.828Z,31.50
2018-08-06T14:04:43.427Z,31.80
2018-08-06T14:07:11.961Z,31.40
2018-08-06T14:09:40.560Z,31.70
2018-08-06T14:12:09.106Z,31.70
2018-08-06T14:14:37.697Z,31.20
2018-08-06T14:17:06.419Z,31.50
2018-08-06T14:19:34.961Z,31.70
2018-08-06T14:22:03.589Z,31.50
2018-08-06T14:24:32.143Z,31.10
2018-08-06T14:27:00.771Z,31.00
2018-08-06T14:29:29.410Z,31.20
2018-08-06T14:31:58.120Z,29.90
2018-08-06T14:34:26.960Z,30.50
2018-08-06T14:36:55.875Z,30.20
2018-08-06T14:39:24.456Z,30.00
2018-08-06T14:41:53.091Z,29.70
2018-08-06T14:44:21.675Z,29.90
2018-08-06T14:46:50.249Z,30.90
2018-08-06T14:51:46.995Z,30.50
2018-08-06T14:54:15.569Z,30.00
2018-08-06T14:56:44.192Z,30.00
2018-08-06T14:59:12.834Z,30.10
2018-08-06T15:01:41.456Z,30.30
2018-08-06T15:04:10.162Z,30.00
2018-08-06T15:06:38.756Z,29.90
2018-08-06T15:09:10.082Z,29.80
2018-08-06T15:11:38.638Z,29.90
2018-08-06T15:16:36.042Z,30.00
2018-08-06T15:19:05.058Z,29.60
2018-08-06T15:21:33.735Z,29.80
2018-08-06T15:24:02.262Z,30.00
2018-08-06T15:26:30.818Z,29.70
2018-08-06T15:28:59.366Z,29.60
2018-08-06T15:31:28.025Z,29.70
2018-08-06T15:33:56.570Z,29.60
2018-08-06T15:36:25.362Z,30.00
2018-08-06T15:38:53.895Z,30.00
2018-08-06T15:41:22.444Z,30.30
2018-08-06T15:43:50.995Z,29.90
2018-08-06T15:46:19.531Z,30.20
2018-08-06T15:48:48.309Z,30.30
2018-08-06T15:51:16.889Z,30.20
2018-08-06T15:53:45.427Z,30.00
2018-08-06T15:56:14.097Z,30.10
2018-08-06T15:58:42.671Z,30.60
2018-08-06T16:01:11.272Z,30.20
2018-08-06T16:03:39.944Z,30.00
2018-08-06T16:06:08.513Z,30.30
2018-08-06T16:08:37.117Z,30.30
2018-08-06T16:11:05.683Z,30.30
2018-08-06T16:13:34.574Z,30.00
2018-08-06T16:16:03.291Z,30.30
2018-08-06T16:18:31.891Z,30.50
2018-08-06T16:21:00.433Z,30.50
2018-08-06T16:23:29.060Z,30.20
2018-08-06T16:25:57.704Z,30.50
2018-08-06T16:28:26.288Z,31.20
2018-08-06T16:30:54.847Z,30.90
2018-08-06T16:33:23.408Z,30.90
2018-08-06T16:35:52.075Z,30.50
2018-08-06T16:40:48.929Z,30.60
2018-08-06T16:43:17.699Z,31.40
2018-08-06T16:45:46.272Z,31.60
2018-08-06T16:48:14.957Z,31.60
2018-08-06T16:50:43.730Z,31.90
2018-08-06T16:53:12.351Z,32.70
2018-08-06T16:55:40.891Z,32.50
2018-08-06T16:58:09.587Z,32.80
2018-08-06T17:00:38.192Z,33.00
2018-08-06T17:03:07.495Z,33.90
2018-08-06T17:05:36.283Z,33.70
2018-08-06T17:08:04.910Z,33.70
2018-08-06T17:10:33.555Z,33.70
2018-08-06T17:13:02.100Z,33.20
2018-08-06T17:15:30.723Z,33.40
2018-08-06T17:17:59.392Z,33.50
2018-08-06T17:20:28.105Z,34.70
2018-08-06T17:25:25.051Z,34.00
2018-08-06T17:27:53.641Z,34.70
2018-08-06T17:30:22.390Z,36.00
2018-08-06T17:32:50.959Z,37.10
2018-08-06T17:35:19.619Z,36.90
2018-08-06T17:37:48.282Z,36.40
2018-08-06T17:40:18.596Z,37.00
2018-08-06T17:42:47.523Z,37.90
2018-08-06T17:45:19.414Z,37.20
2018-08-06T17:47:48.290Z,37.40
2018-08-06T17:50:18.788Z,37.60
2018-08-06T17:52:48.436Z,37.70
2018-08-06T17:55:18.287Z,38.70
2018-08-06T17:57:47.401Z,39.70
2018-08-06T18:00:16.718Z,39.10
2018-08-06T18:02:45.374Z,38.70
2018-08-06T18:05:15.251Z,39.30
2018-08-06T18:07:44.625Z,39.80
2018-08-06T18:10:15.480Z,40.50
2018-08-06T18:12:45.078Z,40.70
2018-08-06T18:15:13.852Z,40.60
2018-08-06T18:17:42.640Z,41.90
2018-08-06T18:20:13.681Z,43.20
2018-08-06T18:22:42.337Z,43.40
2018-08-06T18:27:40.527Z,43.60
2018-08-06T18:30:13.648Z,43.70
2018-08-06T18:35:12.874Z,42.60
2018-08-06T18:37:41.634Z,41.90
2018-08-06T18:40:11.161Z,41.80
2018-08-06T18:42:40.034Z,41.90
2018-08-06T18:45:11.844Z,43.60
2018-08-06T18:47:40.886Z,44.00
2018-08-06T18:50:10.984Z,44.40
2018-08-06T18:52:39.783Z,43.90
2018-08-06T18:55:09.780Z,43.60
2018-08-06T18:57:38.526Z,43.40
2018-08-06T19:00:09.775Z,43.60
2018-08-06T19:02:38.731Z,44.00
2018-08-06T19:05:08.626Z,43.40
2018-08-06T19:07:37.999Z,42.70
2018-08-06T19:10:08.290Z,43.10
2018-08-06T19:12:42.822Z,44.30
2018-08-06T19:15:12.987Z,44.70
2018-08-06T19:17:46.931Z,44.60
2018-08-06T19:20:16.640Z,44.70
2018-08-06T19:22:45.741Z,44.80
2018-08-06T19:25:19.796Z,44.20
2018-08-06T19:27:49.145Z,44.70
2018-08-06T19:30:17.957Z,45.20
2018-08-06T19:32:47.376Z,45.40
2018-08-06T19:35:17.029Z,46.30
2018-08-06T19:37:48.728Z,45.60
2018-08-06T19:40:17.428Z,45.70
2018-08-06T19:42:51.176Z,46.00
2018-08-06T19:45:19.834Z,45.50
2018-08-06T19:50:22.280Z,42.90
2018-08-06T19:52:50.916Z,43.50
2018-08-06T19:55:24.928Z,43.00
2018-08-06T19:57:53.567Z,43.60
2018-08-06T20:00:22.235Z,43.80
2018-08-06T20:02:50.853Z,43.40
2018-08-06T20:05:19.647Z,44.10
2018-08-06T20:07:48.400Z,45.50
2018-08-06T20:10:16.956Z,45.30
2018-08-06T20:12:45.797Z,45.70
2018-08-06T20:15:17.739Z,46.20
2018-08-06T20:17:47.142Z,46.00
2018-08-06T20:20:15.774Z,45.90
2018-08-06T20:22:44.747Z,45.20
2018-08-06T20:25:17.853Z,45.20
2018-08-06T20:27:47.604Z,45.50
2018-08-06T20:30:17.990Z,45.40
2018-08-06T20:32:46.873Z,45.60
2018-08-06T20:35:16.852Z,45.40
2018-08-06T20:37:45.458Z,45.70
2018-08-06T20:40:14.244Z,45.90
2018-08-06T20:42:44.056Z,46.70
2018-08-06T20:45:15.259Z,46.90
2018-08-06T20:47:44.307Z,47.00
2018-08-06T20:50:15.651Z,47.30
2018-08-06T20:52:45.466Z,47.70
2018-08-06T20:55:14.194Z,48.10
2018-08-06T20:57:43.357Z,48.60
2018-08-06T21:00:17.968Z,48.70
2018-08-06T21:02:47.503Z,48.30
2018-08-06T21:05:16.143Z,48.30
2018-08-06T21:07:44.855Z,47.70
2018-08-06T21:10:14.893Z,47.70
2018-08-06T21:15:13.049Z,47.90
2018-08-06T21:20:11.581Z,48.30
2018-08-06T21:22:40.965Z,48.20
2018-08-06T21:25:10.725Z,48.40
2018-08-06T21:30:10.815Z,48.40
2018-08-06T21:32:40.183Z,48.40
2018-08-06T21:35:08.940Z,48.80
2018-08-06T21:37:37.843Z,49.20
2018-08-06T21:40:06.517Z,49.40
2018-08-06T21:42:35.433Z,49.60
2018-08-06T21:45:04.284Z,49.90
2018-08-06T21:47:32.764Z,50.10
2018-08-06T21:50:01.313Z,50.30
2018-08-06T21:52:30.116Z,50.40
2018-08-06T21:54:58.729Z,50.50
2018-08-06T21:57:27.428Z,50.60
2018-08-06T21:59:56.176Z,50.70
2018-08-06T22:02:24.944Z,50.80
2018-08-06T22:04:53.600Z,50.90
2018-08-06T22:07:22.254Z,51.00
2018-08-06T22:09:50.900Z,51.10
2018-08-06T22:12:19.596Z,51.20
2018-08-06T22:14:50.097Z,51.20
2018-08-06T22:17:18.741Z,51.40
2018-08-06T22:19:47.563Z,51.30
2018-08-06T22:22:16.243Z,51.50
2018-08-06T22:24:44.890Z,51.60
2018-08-06T22:27:13.512Z,51.60
2018-08-06T22:32:10.772Z,51.70
2018-08-06T22:34:39.535Z,51.80
2018-08-06T22:37:08.122Z,51.90
2018-08-06T22:39:36.735Z,52.00
2018-08-06T22:42:05.378Z,52.10
2018-08-06T22:44:33.920Z,52.30
2018-08-06T22:47:02.502Z,52.30
2018-08-06T22:49:31.259Z,52.30
2018-08-06T22:51:59.887Z,52.40
2018-08-06T22:54:28.577Z,52.50
2018-08-06T22:56:57.182Z,52.60
2018-08-06T22:59:25.741Z,52.70
2018-08-06T23:01:54.515Z,52.90
2018-08-06T23:04:23.171Z,53.10
2018-08-06T23:06:51.763Z,53.30
2018-08-06T23:09:20.569Z,53.30
2018-08-06T23:11:49.140Z,53.50
2018-08-06T23:14:17.831Z,53.60
2018-08-06T23:16:46.468Z,53.80
2018-08-06T23:19:15.170Z,53.90
2018-08-06T23:21:43.994Z,54.10
2018-08-06T23:24:12.637Z,54.10
2018-08-06T23:26:41.250Z,54.20
2018-08-06T23:29:09.894Z,54.30
2018-08-06T23:31:38.594Z,54.40
2018-08-06T23:34:07.263Z,54.50
2018-08-06T23:36:35.787Z,54.60
2018-08-06T23:39:06.240Z,54.60
2018-08-06T23:41:34.966Z,54.60
2018-08-06T23:44:03.584Z,55.20
2018-08-06T23:46:32.175Z,54.60
2018-08-06T23:49:00.887Z,54.70
2018-08-06T23:51:29.636Z,54.80
2018-08-06T23:53:58.340Z,55.60
2018-08-06T23:56:27.326Z,55.10
2018-08-06T23:58:56.032Z,55.40
